Time;durP1;ratioP1;P1;durP2;ratioP2;P2;SDS_P1;SDS_P2;PMS_P1;PMS_P2;Temp;Humidity;BMP_temperature;BMP_pressure;BME280_temperature;BME280_humidity;BME280_pressure;Samples;Min_cycle;Max_cycle;Signal;HPM_P1;HPM_P2
2021/10/01 00:01:30;;;;;;;7.97;4.28;;;11.40;99.90;;;;;;5033989;28;20592;-79
2021/10/01 00:03:57;;;;;;;7.63;4.50;;;11.40;99.90;;;;;;5036428;28;20061;-80
2021/10/01 00:06:29;;;;;;;8.68;4.45;;;11.30;99.90;;;;;;5036241;28;20052;-79
2021/10/01 00:14:44;;;;;;;9.15;4.40;;;11.30;99.90;;;;;;4985945;28;20043;-80
2021/10/01 00:17:16;;;;;;;7.90;4.60;;;11.20;99.90;;;;;;5034398;28;20045;-79
2021/10/01 00:19:52;;;;;;;6.88;4.18;;;11.20;99.90;;;;;;5040460;28;20071;-79
2021/10/01 00:22:42;;;;;;;6.80;4.03;;;11.20;99.90;;;;;;5042778;28;20045;-79
2021/10/01 00:25:13;;;;;;;9.40;4.70;;;11.20;99.90;;;;;;5036923;28;20041;-79
2021/10/01 00:27:47;;;;;;;8.85;4.65;;;11.20;99.90;;;;;;5037100;28;20053;-80
2021/10/01 00:30:15;;;;;;;9.55;4.78;;;11.10;99.90;;;;;;5036744;28;20539;-79
2021/10/01 00:32:48;;;;;;;9.25;4.63;;;11.10;99.90;;;;;;5036858;28;20098;-80
2021/10/01 00:38:23;;;;;;;7.85;4.30;;;11.10;99.90;;;;;;5036737;28;20076;-79
2021/10/01 00:41:06;;;;;;;9.82;4.30;;;11.10;99.90;;;;;;5041437;28;20064;-79
2021/10/01 00:44:08;;;;;;;9.45;4.30;;;11.00;99.90;;;;;;5036127;28;20492;-79
2021/10/01 00:46:35;;;;;;;6.50;4.47;;;10.90;99.90;;;;;;5037177;28;20103;-79
2021/10/01 00:49:02;;;;;;;6.82;4.00;;;10.90;99.90;;;;;;5036010;28;20081;-78
2021/10/01 00:51:30;;;;;;;10.70;4.40;;;10.80;99.90;;;;;;5034154;28;20137;-78
2021/10/01 00:53:59;;;;;;;6.70;4.32;;;10.80;99.90;;;;;;5034359;28;20055;-78
2021/10/01 00:56:25;;;;;;;6.65;4.20;;;10.80;99.90;;;;;;5034705;28;20586;-77
2021/10/01 00:58:53;;;;;;;6.53;4.13;;;10.80;99.90;;;;;;5034121;28;20132;-78
2021/10/01 01:01:20;;;;;;;6.10;4.03;;;10.70;99.90;;;;;;5037433;28;20416;-78
2021/10/01 01:03:51;;;;;;;7.93;3.92;;;10.70;99.90;;;;;;5040020;28;20136;-79
2021/10/01 01:06:28;;;;;;;7.18;4.20;;;10.70;99.90;;;;;;5036593;28;20425;-79
2021/10/01 01:09:06;;;;;;;12.80;4.05;;;10.70;99.90;;;;;;5036529;28;20526;-79
2021/10/01 01:11:45;;;;;;;6.15;4.10;;;10.70;99.90;;;;;;5036063;28;20476;-77
2021/10/01 01:14:15;;;;;;;8.77;4.20;;;10.70;99.90;;;;;;5035612;28;20053;-78
2021/10/01 01:16:45;;;;;;;8.25;4.05;;;10.60;99.90;;;;;;5035562;28;20152;-77
2021/10/01 01:19:22;;;;;;;7.15;4.28;;;10.60;99.90;;;;;;5035610;28;20573;-78
2021/10/01 01:22:03;;;;;;;10.05;4.30;;;10.50;99.90;;;;;;5034948;28;20132;-79
2021/10/01 01:24:59;;;;;;;8.57;4.00;;;10.60;99.90;;;;;;5034841;28;20045;-81
2021/10/01 01:27:41;;;;;;;7.15;4.18;;;10.50;99.90;;;;;;5032385;28;20140;-79
2021/10/01 01:30:12;;;;;;;10.00;4.17;;;10.50;99.90;;;;;;5034395;28;20085;-78
2021/10/01 01:32:43;;;;;;;8.02;4.00;;;10.50;99.90;;;;;;5034960;28;20061;-78
2021/10/01 01:35:14;;;;;;;7.65;4.07;;;10.50;99.90;;;;;;5033968;28;20049;-79
2021/10/01 01:37:45;;;;;;;9.45;3.95;;;10.50;99.90;;;;;;5034379;28;20053;-79
2021/10/01 01:40:15;;;;;;;7.53;3.85;;;10.50;99.90;;;;;;5035124;28;20081;-78
2021/10/01 01:42:44;;;;;;;11.02;4.15;;;10.40;99.90;;;;;;5034852;28;20277;-79
2021/10/01 01:45:14;;;;;;;6.63;3.90;;;10.40;99.90;;;;;;5035223;28;20133;-79
2021/10/01 01:47:43;;;;;;;7.47;4.20;;;10.40;99.90;;;;;;5035678;28;20081;-81
2021/10/01 01:50:11;;;;;;;6.32;4.03;;;10.30;99.90;;;;;;5034740;28;20136;-78
2021/10/01 01:52:40;;;;;;;9.98;4.30;;;10.30;99.90;;;;;;5035106;28;20052;-78
2021/10/01 01:55:08;;;;;;;7.13;4.15;;;10.30;99.90;;;;;;5035101;28;20487;-78
2021/10/01 01:57:36;;;;;;;7.40;4.10;;;10.30;99.90;;;;;;5033664;28;20549;-79
2021/10/01 02:00:04;;;;;;;9.27;4.50;;;10.30;99.90;;;;;;5038339;28;20057;-79
2021/10/01 02:02:33;;;;;;;6.32;4.00;;;10.30;99.90;;;;;;5037993;28;20128;-79
2021/10/01 02:05:02;;;;;;;11.25;4.00;;;10.20;99.90;;;;;;5037745;28;20136;-81
2021/10/01 02:07:30;;;;;;;7.22;4.05;;;10.20;99.90;;;;;;5036893;28;20109;-79
2021/10/01 02:09:58;;;;;;;10.95;4.35;;;10.30;99.90;;;;;;5037729;28;20068;-80
2021/10/01 02:12:27;;;;;;;9.80;4.55;;;10.20;99.90;;;;;;5039316;28;20481;-78
2021/10/01 02:14:56;;;;;;;7.70;4.38;;;10.10;99.90;;;;;;5037954;28;20399;-79
2021/10/01 02:17:25;;;;;;;11.88;4.05;;;10.10;99.90;;;;;;5040193;28;20112;-79
2021/10/01 02:19:53;;;;;;;9.10;4.05;;;10.10;99.90;;;;;;5039276;28;20500;-80
2021/10/01 02:22:22;;;;;;;6.70;4.03;;;10.10;99.90;;;;;;5036806;28;20060;-79
2021/10/01 02:24:49;;;;;;;8.68;3.50;;;10.10;99.90;;;;;;5037537;28;20133;-80
2021/10/01 02:27:23;;;;;;;5.60;3.60;;;10.10;99.90;;;;;;5035313;28;20049;-79
2021/10/01 02:29:54;;;;;;;7.03;3.78;;;10.10;99.90;;;;;;5034059;28;20432;-79
2021/10/01 02:32:30;;;;;;;7.38;3.95;;;10.10;99.90;;;;;;5033820;28;20052;-79
2021/10/01 02:34:58;;;;;;;7.65;3.80;;;10.10;99.90;;;;;;5037262;28;20505;-81
2021/10/01 02:37:26;;;;;;;7.43;3.90;;;10.10;99.90;;;;;;5039667;28;20141;-80
2021/10/01 02:39:55;;;;;;;8.30;4.20;;;10.10;99.90;;;;;;5038469;28;20136;-79
2021/10/01 02:42:23;;;;;;;8.20;4.75;;;10.10;99.90;;;;;;5036585;28;20113;-80
2021/10/01 02:44:51;;;;;;;9.15;3.78;;;10.10;99.90;;;;;;5037385;28;20128;-79
2021/10/01 02:47:21;;;;;;;6.45;3.75;;;10.10;99.90;;;;;;5039916;28;20084;-78
2021/10/01 02:49:48;;;;;;;8.07;3.78;;;10.10;99.90;;;;;;5041746;28;20129;-81
2021/10/01 02:52:23;;;;;;;11.00;4.03;;;10.10;99.90;;;;;;5043081;28;20109;-80
2021/10/01 02:55:00;;;;;;;8.32;3.50;;;10.10;99.90;;;;;;5040167;28;20046;-78
2021/10/01 02:57:34;;;;;;;10.65;3.60;;;10.10;99.90;;;;;;5038369;28;20077;-79
2021/10/01 03:00:04;;;;;;;10.30;3.90;;;10.10;99.90;;;;;;5040915;28;20446;-79
2021/10/01 03:02:33;;;;;;;5.47;3.40;;;10.10;99.90;;;;;;5036286;28;20052;-79
2021/10/01 03:05:02;;;;;;;6.32;3.30;;;10.10;99.90;;;;;;5035829;28;20041;-78
2021/10/01 03:07:33;;;;;;;8.32;3.50;;;10.10;99.90;;;;;;5035278;28;20464;-78
2021/10/01 03:10:04;;;;;;;7.85;3.70;;;10.10;99.90;;;;;;5035332;28;20099;-78
2021/10/01 03:12:32;;;;;;;8.30;4.13;;;10.10;99.90;;;;;;5035447;28;20084;-77
2021/10/01 03:15:00;;;;;;;7.32;4.15;;;10.10;99.90;;;;;;5034712;28;20493;-76
2021/10/01 03:17:27;;;;;;;7.95;4.38;;;10.10;99.90;;;;;;5045930;28;20084;-77
2021/10/01 03:19:55;;;;;;;8.13;4.20;;;10.10;99.90;;;;;;5054026;28;20072;-79
2021/10/01 03:22:23;;;;;;;10.82;4.57;;;10.10;99.90;;;;;;5053057;28;20544;-78
2021/10/01 03:24:50;;;;;;;8.27;4.50;;;10.10;99.90;;;;;;5053965;28;20136;-80
2021/10/01 03:27:19;;;;;;;10.57;4.70;;;10.10;99.90;;;;;;5053600;28;20135;-78
2021/10/01 03:29:46;;;;;;;7.40;4.72;;;10.10;99.90;;;;;;5053857;28;20131;-77
2021/10/01 03:32:13;;;;;;;6.80;4.57;;;10.20;99.90;;;;;;5052995;28;20249;-78
2021/10/01 03:34:40;;;;;;;10.90;5.25;;;10.20;99.90;;;;;;5053611;28;20059;-77
2021/10/01 03:37:09;;;;;;;9.35;4.80;;;10.20;99.90;;;;;;5052984;28;20088;-80
2021/10/01 03:39:37;;;;;;;7.47;4.72;;;10.30;99.90;;;;;;5054057;28;20052;-77
2021/10/01 03:42:04;;;;;;;8.55;4.55;;;10.30;99.90;;;;;;5052529;28;20509;-79
2021/10/01 03:44:33;;;;;;;10.35;4.80;;;10.40;99.90;;;;;;5053704;28;20060;-78
2021/10/01 03:47:00;;;;;;;13.95;4.95;;;10.40;99.90;;;;;;5053420;28;20052;-78
2021/10/01 03:49:27;;;;;;;8.60;4.78;;;10.40;99.90;;;;;;5054038;28;20519;-78
2021/10/01 03:51:54;;;;;;;9.82;5.60;;;10.40;99.90;;;;;;5052298;28;20509;-80
2021/10/01 03:54:21;;;;;;;8.93;5.10;;;10.40;99.90;;;;;;5053310;28;20088;-78
2021/10/01 03:56:48;;;;;;;8.27;4.82;;;10.40;99.90;;;;;;5053401;28;20125;-78
2021/10/01 03:59:15;;;;;;;8.20;5.65;;;10.40;99.90;;;;;;5054189;28;20139;-79
2021/10/01 04:01:43;;;;;;;7.32;5.10;;;10.40;99.90;;;;;;5056534;28;20049;-78
2021/10/01 04:04:10;;;;;;;10.25;5.45;;;10.40;99.90;;;;;;5054851;28;20489;-77
2021/10/01 04:06:39;;;;;;;8.30;5.60;;;10.40;99.90;;;;;;5054006;28;20057;-78
2021/10/01 04:09:06;;;;;;;8.73;5.35;;;10.40;99.90;;;;;;5053643;28;20044;-77
2021/10/01 04:11:38;;;;;;;10.95;5.07;;;10.40;99.90;;;;;;5053947;28;20083;-78
2021/10/01 04:14:05;;;;;;;10.37;5.60;;;10.30;99.90;;;;;;5053693;28;20111;-76
2021/10/01 04:16:32;;;;;;;10.95;5.82;;;10.30;99.90;;;;;;5053895;28;20136;-76
2021/10/01 04:19:00;;;;;;;8.15;5.05;;;10.30;99.90;;;;;;5054582;28;20059;-77
2021/10/01 04:21:27;;;;;;;8.23;4.70;;;10.30;99.90;;;;;;5053913;28;20424;-76
2021/10/01 04:23:54;;;;;;;7.05;4.47;;;10.20;99.90;;;;;;5053332;28;20079;-77
2021/10/01 04:26:21;;;;;;;7.00;4.30;;;10.20;99.90;;;;;;5052715;28;20107;-78
2021/10/01 04:28:47;;;;;;;7.80;4.22;;;10.20;99.90;;;;;;5053554;28;20079;-78
2021/10/01 04:31:15;;;;;;;10.65;4.32;;;10.20;99.90;;;;;;5053743;28;20476;-78
2021/10/01 04:33:42;;;;;;;9.57;4.18;;;10.20;99.90;;;;;;5053603;28;20501;-78
2021/10/01 04:36:12;;;;;;;7.53;4.20;;;10.20;99.90;;;;;;5053044;28;20152;-78
2021/10/01 04:38:39;;;;;;;6.82;4.78;;;10.20;99.90;;;;;;5052858;28;20534;-78
2021/10/01 04:41:06;;;;;;;9.98;4.63;;;10.20;99.90;;;;;;5053703;28;20280;-77
2021/10/01 04:43:34;;;;;;;5.32;3.80;;;10.20;99.90;;;;;;5053242;28;20559;-78
2021/10/01 04:46:01;;;;;;;7.40;4.18;;;10.20;99.90;;;;;;5054071;28;20053;-80
2021/10/01 04:48:28;;;;;;;11.02;4.25;;;10.20;99.90;;;;;;5054493;28;20107;-78
2021/10/01 04:50:56;;;;;;;9.27;4.15;;;10.20;99.90;;;;;;5055253;28;20072;-78
2021/10/01 04:53:25;;;;;;;8.45;4.03;;;10.20;99.90;;;;;;5053440;28;20135;-77
2021/10/01 04:55:52;;;;;;;7.85;4.05;;;10.20;99.90;;;;;;5053174;28;20045;-78
2021/10/01 04:58:18;;;;;;;13.13;4.40;;;10.10;99.90;;;;;;5053080;28;20053;-77
2021/10/01 05:00:45;;;;;;;9.55;4.05;;;10.10;99.90;;;;;;5052485;28;20076;-77
2021/10/01 05:03:15;;;;;;;9.88;4.40;;;10.10;99.90;;;;;;5055566;28;20131;-79
2021/10/01 05:05:42;;;;;;;9.00;4.30;;;10.10;99.90;;;;;;5054797;28;20136;-77
2021/10/01 05:08:09;;;;;;;11.68;5.13;;;10.10;99.90;;;;;;5052443;28;20053;-77
2021/10/01 05:10:37;;;;;;;8.35;4.68;;;10.00;99.90;;;;;;5053352;28;20049;-78
2021/10/01 05:13:04;;;;;;;11.40;4.88;;;10.00;99.90;;;;;;5052735;28;20132;-78
2021/10/01 05:15:33;;;;;;;9.88;4.47;;;10.00;99.90;;;;;;5052303;28;20069;-79
2021/10/01 05:18:00;;;;;;;8.82;4.57;;;10.00;99.90;;;;;;5052935;28;20051;-77
2021/10/01 05:20:27;;;;;;;9.00;4.45;;;10.00;99.90;;;;;;5068728;22;20553;-77
2021/10/01 05:22:54;;;;;;;7.93;4.32;;;9.90;99.90;;;;;;5043347;28;20755;-75
2021/10/01 05:25:21;;;;;;;7.35;4.70;;;9.90;99.90;;;;;;5051841;28;20497;-76
2021/10/01 05:27:50;;;;;;;8.98;4.18;;;9.90;99.90;;;;;;5051704;28;20051;-76
2021/10/01 05:30:16;;;;;;;7.55;4.50;;;9.90;99.90;;;;;;5051821;28;20084;-76
2021/10/01 05:32:43;;;;;;;7.65;4.10;;;9.90;99.90;;;;;;5051952;28;20084;-78
2021/10/01 05:35:10;;;;;;;10.18;4.20;;;9.90;99.90;;;;;;5051471;28;20067;-78
2021/10/01 05:37:37;;;;;;;10.65;4.03;;;9.90;99.90;;;;;;5051673;28;20515;-77
2021/10/01 05:40:11;;;;;;;9.50;4.10;;;9.90;99.90;;;;;;5051322;28;20561;-77
2021/10/01 05:42:38;;;;;;;7.22;4.10;;;9.90;99.90;;;;;;5051948;28;20512;-78
2021/10/01 05:45:09;;;;;;;11.80;4.50;;;9.90;99.90;;;;;;5051634;28;20063;-76
2021/10/01 05:47:37;;;;;;;8.13;4.47;;;9.90;99.90;;;;;;5051789;28;20052;-77
2021/10/01 05:50:05;;;;;;;8.85;4.45;;;9.90;99.90;;;;;;5051635;28;20053;-77
2021/10/01 05:52:49;;;;;;;6.72;4.90;;;9.90;99.90;;;;;;5051553;28;20148;-77
2021/10/01 05:55:16;;;;;;;10.45;4.53;;;9.90;99.90;;;;;;5051597;28;20049;-77
2021/10/01 05:57:44;;;;;;;11.77;5.05;;;9.90;99.90;;;;;;5051362;28;20048;-78
2021/10/01 06:00:13;;;;;;;12.73;4.88;;;10.00;99.90;;;;;;5051868;28;20132;-79
2021/10/01 06:02:42;;;;;;;9.50;4.85;;;10.00;99.90;;;;;;5051241;28;20063;-77
2021/10/01 06:05:09;;;;;;;9.55;4.70;;;10.00;99.90;;;;;;5026916;28;20057;-76
2021/10/01 06:07:39;;;;;;;9.68;4.22;;;10.00;99.90;;;;;;5019620;28;20037;-78
2021/10/01 06:10:08;;;;;;;8.80;4.28;;;10.00;99.90;;;;;;5018308;28;20045;-77
2021/10/01 06:12:35;;;;;;;7.45;4.18;;;10.00;99.90;;;;;;5016098;28;20137;-77
2021/10/01 06:15:03;;;;;;;7.35;3.75;;;10.10;99.90;;;;;;5011313;28;20136;-77
2021/10/01 06:17:31;;;;;;;10.60;4.20;;;10.10;99.90;;;;;;5011217;28;20052;-78
2021/10/01 06:20:01;;;;;;;7.85;4.18;;;10.20;99.90;;;;;;5011822;28;21357;-77
2021/10/01 06:22:28;;;;;;;9.30;4.18;;;10.30;99.90;;;;;;5029756;28;20053;-77
2021/10/01 06:24:55;;;;;;;9.38;4.40;;;10.40;99.90;;;;;;5015149;28;20068;-78
2021/10/01 06:27:22;;;;;;;5.05;3.63;;;10.60;99.90;;;;;;5026075;28;20076;-78
2021/10/01 06:29:50;;;;;;;9.65;4.20;;;10.90;99.90;;;;;;5025430;28;20042;-78
2021/10/01 06:32:17;;;;;;;5.88;3.88;;;11.20;99.90;;;;;;5021219;28;20056;-79
2021/10/01 06:34:45;;;;;;;8.55;3.63;;;11.50;99.90;;;;;;5018590;28;20137;-76
2021/10/01 06:37:12;;;;;;;4.18;3.22;;;11.80;99.90;;;;;;5017760;28;20146;-77
2021/10/01 06:39:39;;;;;;;13.73;4.63;;;12.00;99.90;;;;;;5017460;28;20111;-81
2021/10/01 06:42:06;;;;;;;7.05;3.80;;;12.00;99.90;;;;;;5017774;28;20108;-79
2021/10/01 06:44:35;;;;;;;5.38;3.20;;;12.10;99.90;;;;;;5017654;28;20490;-79
2021/10/01 06:47:05;;;;;;;7.43;3.33;;;12.30;99.90;;;;;;5017114;28;20053;-82
2021/10/01 06:49:47;;;;;;;6.85;3.40;;;12.70;99.90;;;;;;5016246;28;20058;-78
2021/10/01 08:50:55;;;;;;;6.88;3.00;;;17.20;99.90;;;;;;5080323;28;20056;-82
2021/10/01 08:53:30;;;;;;;6.00;3.00;;;17.10;99.90;;;;;;5083366;28;20052;-81
2021/10/01 08:55:58;;;;;;;6.50;2.88;;;16.80;99.90;;;;;;5080888;28;20068;-80
2021/10/01 08:58:28;;;;;;;5.53;2.85;;;16.90;99.90;;;;;;5081979;28;20052;-80
2021/10/01 09:00:58;;;;;;;5.18;2.65;;;16.90;99.90;;;;;;5081646;28;20068;-80
2021/10/01 09:03:29;;;;;;;5.45;2.75;;;16.80;99.90;;;;;;5080407;28;20095;-82
2021/10/01 09:05:57;;;;;;;7.43;3.13;;;16.80;99.90;;;;;;5081837;28;20094;-80
2021/10/01 09:08:26;;;;;;;9.77;3.70;;;16.60;99.90;;;;;;5079285;28;20143;-78
2021/10/01 09:11:04;;;;;;;9.48;3.50;;;16.50;99.90;;;;;;5079699;28;20056;-80
2021/10/01 09:13:34;;;;;;;9.35;3.15;;;16.50;99.90;;;;;;5080988;28;20056;-81
2021/10/01 09:16:05;;;;;;;5.95;2.88;;;16.40;99.90;;;;;;5081500;28;20087;-81
2021/10/01 09:18:47;;;;;;;3.45;2.38;;;16.40;99.90;;;;;;5081228;28;20101;-81
2021/10/01 09:21:20;;;;;;;5.60;2.42;;;16.60;99.90;;;;;;5082662;28;20059;-81
2021/10/01 09:23:59;;;;;;;9.30;2.75;;;16.60;99.90;;;;;;5080540;28;20045;-80
2021/10/01 09:26:30;;;;;;;6.13;2.80;;;16.70;99.90;;;;;;5080910;28;20048;-79
2021/10/01 09:29:00;;;;;;;5.07;3.00;;;16.70;99.90;;;;;;5078736;28;20052;-81
2021/10/01 09:31:36;;;;;;;8.73;3.05;;;16.70;99.90;;;;;;5080735;28;20086;-81
2021/10/01 09:34:06;;;;;;;7.05;2.72;;;16.70;99.90;;;;;;5080906;28;20068;-80
2021/10/01 09:36:33;;;;;;;6.50;2.92;;;16.70;99.90;;;;;;5082588;28;20071;-80
2021/10/01 09:39:00;;;;;;;4.95;2.55;;;16.90;99.90;;;;;;5081879;28;20045;-80
2021/10/01 09:41:30;;;;;;;9.27;3.05;;;16.90;99.90;;;;;;5080630;28;20470;-80
2021/10/01 09:44:07;;;;;;;9.48;3.17;;;17.00;99.90;;;;;;5081538;28;20049;-81
2021/10/01 09:46:47;;;;;;;7.07;2.85;;;17.00;99.90;;;;;;5080308;28;20044;-80
2021/10/01 09:49:29;;;;;;;5.10;2.58;;;17.10;99.90;;;;;;5081410;28;20237;-80
2021/10/01 09:51:57;;;;;;;8.48;2.63;;;17.10;99.90;;;;;;5081846;28;20060;-81
2021/10/01 09:54:26;;;;;;;8.75;3.50;;;17.00;99.90;;;;;;5082236;28;20440;-81
2021/10/01 09:56:55;;;;;;;6.68;2.70;;;16.90;99.90;;;;;;5081800;28;20048;-81
2021/10/01 09:59:33;;;;;;;11.93;3.28;;;16.90;99.90;;;;;;5081370;28;20048;-82
2021/10/01 10:02:14;;;;;;;5.15;2.47;;;16.90;99.90;;;;;;5080327;28;20068;-80
2021/10/01 10:04:53;;;;;;;4.78;2.38;;;16.90;99.90;;;;;;5083344;28;20060;-82
2021/10/01 10:07:21;;;;;;;4.65;2.88;;;16.90;99.90;;;;;;5082531;28;20051;-83
2021/10/01 10:09:51;;;;;;;5.20;2.58;;;16.90;99.90;;;;;;5086005;28;20483;-80
2021/10/01 10:12:22;;;;;;;10.13;3.10;;;17.00;99.90;;;;;;5087817;28;20049;-80
2021/10/01 10:14:57;;;;;;;7.43;2.70;;;17.00;99.90;;;;;;5085661;28;20055;-80
2021/10/01 10:17:25;;;;;;;7.10;2.50;;;17.10;99.90;;;;;;5083951;28;20489;-80
2021/10/01 10:20:04;;;;;;;5.82;2.33;;;17.20;99.90;;;;;;5086435;28;20110;-80
2021/10/01 10:22:32;;;;;;;6.22;2.50;;;17.30;99.90;;;;;;5085729;28;20052;-81
2021/10/01 10:24:59;;;;;;;4.50;2.42;;;17.30;99.90;;;;;;5086321;28;20044;-81
2021/10/01 10:27:28;;;;;;;7.03;2.45;;;17.30;99.90;;;;;;5086232;28;20075;-80
2021/10/01 10:29:57;;;;;;;6.18;3.15;;;17.30;99.90;;;;;;5085697;28;20044;-83
2021/10/01 10:32:29;;;;;;;5.43;2.53;;;17.30;99.90;;;;;;5085722;28;20041;-81
2021/10/01 10:35:00;;;;;;;4.70;3.25;;;17.30;99.90;;;;;;5085043;28;20080;-81
2021/10/01 10:37:37;;;;;;;9.00;2.90;;;17.30;99.90;;;;;;5085594;28;20091;-82
2021/10/01 10:40:06;;;;;;;7.03;2.95;;;17.40;99.90;;;;;;5086071;28;20048;-81
2021/10/01 10:42:38;;;;;;;6.32;2.78;;;17.50;99.90;;;;;;5084965;28;20494;-79
2021/10/01 10:45:18;;;;;;;4.32;2.45;;;17.60;99.90;;;;;;5084932;28;20045;-80
2021/10/01 10:47:57;;;;;;;7.75;2.88;;;17.70;99.90;;;;;;5083193;28;20343;-79
2021/10/01 10:50:40;;;;;;;5.72;2.63;;;17.80;99.90;;;;;;5084633;28;20107;-79
2021/10/01 10:53:32;;;;;;;7.72;3.22;;;17.80;99.90;;;;;;5086534;28;20049;-81
2021/10/01 10:56:08;;;;;;;7.03;2.90;;;17.70;99.90;;;;;;5087464;28;20091;-81
2021/10/01 10:58:41;;;;;;;15.02;3.40;;;17.60;99.90;;;;;;5087203;28;20090;-81
2021/10/01 11:01:34;;;;;;;4.00;2.90;;;17.50;99.90;;;;;;5087796;28;20462;-80
2021/10/01 11:04:35;;;;;;;4.05;2.45;;;17.60;99.90;;;;;;5087475;28;20143;-80
2021/10/01 11:07:05;;;;;;;7.30;2.88;;;17.60;99.90;;;;;;5087857;28;20052;-81
2021/10/01 11:09:33;;;;;;;9.50;2.70;;;17.60;99.90;;;;;;5089546;28;20052;-81
2021/10/01 11:12:10;;;;;;;7.82;2.90;;;17.70;99.90;;;;;;5089521;28;20056;-81
2021/10/01 11:14:40;;;;;;;5.93;2.95;;;17.70;99.90;;;;;;5088784;28;20056;-82
2021/10/01 11:17:32;;;;;;;4.25;2.55;;;17.60;99.90;;;;;;5087636;28;20041;-79
2021/10/01 11:20:01;;;;;;;11.57;2.92;;;17.70;99.90;;;;;;5086974;28;20496;-79
2021/10/01 11:22:38;;;;;;;8.45;3.55;;;17.70;99.90;;;;;;5085774;28;20052;-83
2021/10/01 11:25:22;;;;;;;5.85;3.55;;;17.80;99.90;;;;;;5086600;28;20051;-82
2021/10/01 11:27:58;;;;;;;8.57;3.17;;;17.80;99.90;;;;;;5085411;28;20040;-80
2021/10/01 11:30:28;;;;;;;7.38;3.35;;;17.90;99.90;;;;;;5085343;28;20056;-79
2021/10/01 11:33:11;;;;;;;10.45;3.97;;;18.00;99.90;;;;;;5086548;28;20045;-78
2021/10/01 11:35:54;;;;;;;5.22;3.33;;;18.10;99.90;;;;;;5086561;28;20131;-82
2021/10/01 11:38:25;;;;;;;5.20;3.28;;;18.10;99.90;;;;;;5085663;28;20147;-81
2021/10/01 11:41:10;;;;;;;6.18;3.20;;;18.00;99.90;;;;;;5085366;28;20072;-80
2021/10/01 11:43:52;;;;;;;5.80;2.72;;;18.00;99.90;;;;;;5083324;28;20516;-77
2021/10/01 11:46:32;;;;;;;9.73;2.88;;;18.10;99.90;;;;;;5080543;28;20051;-79
2021/10/01 11:49:08;;;;;;;14.25;3.30;;;18.20;99.90;;;;;;5078521;28;20040;-79
2021/10/01 11:51:37;;;;;;;6.30;3.17;;;18.30;99.90;;;;;;5076528;28;20515;-79
2021/10/01 11:54:14;;;;;;;7.68;3.30;;;18.50;99.90;;;;;;5078930;28;20420;-80
2021/10/01 11:56:56;;;;;;;10.00;3.10;;;18.50;99.90;;;;;;5080875;28;20135;-79
2021/10/01 11:59:25;;;;;;;9.57;5.20;;;18.60;99.90;;;;;;5084651;28;20049;-80
2021/10/01 12:01:59;;;;;;;5.82;2.33;;;18.60;99.90;;;;;;5085458;28;20062;-81
2021/10/01 12:04:31;;;;;;;6.05;2.88;;;18.70;99.90;;;;;;5082317;28;20088;-80
2021/10/01 12:07:03;;;;;;;3.60;2.47;;;18.80;99.90;;;;;;5084435;28;20044;-81
2021/10/01 12:09:32;;;;;;;5.70;2.80;;;18.90;99.90;;;;;;5084287;28;20049;-81
2021/10/01 12:12:08;;;;;;;6.60;2.80;;;18.90;99.90;;;;;;5085602;28;20059;-80
2021/10/01 12:14:36;;;;;;;5.20;3.33;;;18.80;99.90;;;;;;5085826;28;20074;-80
2021/10/01 12:17:05;;;;;;;4.50;2.58;;;18.80;99.90;;;;;;5084224;28;20044;-81
2021/10/01 12:19:33;;;;;;;3.35;2.50;;;18.90;99.90;;;;;;5083924;28;20052;-82
2021/10/01 12:22:10;;;;;;;5.30;2.65;;;18.80;99.90;;;;;;5084747;28;20059;-80
2021/10/01 12:24:48;;;;;;;5.20;2.63;;;18.80;99.90;;;;;;5085424;28;20064;-80
2021/10/01 12:27:43;;;;;;;6.55;3.05;;;18.80;99.90;;;;;;5084165;28;20044;-80
2021/10/01 12:30:13;;;;;;;6.53;2.85;;;18.90;99.90;;;;;;5081405;28;20056;-81
2021/10/01 12:33:12;;;;;;;7.95;3.15;;;19.00;99.90;;;;;;5083940;28;20071;-83
2021/10/01 12:35:42;;;;;;;8.18;2.95;;;19.20;99.90;;;;;;5078666;28;20091;-81
2021/10/01 12:38:11;;;;;;;5.70;2.58;;;19.20;99.90;;;;;;5080916;28;20044;-83
2021/10/01 12:40:39;;;;;;;4.82;2.60;;;19.30;99.90;;;;;;5084011;28;20055;-79
2021/10/01 12:43:06;;;;;;;6.30;3.40;;;19.50;99.90;;;;;;5082027;28;20060;-81
2021/10/01 12:45:43;;;;;;;20.65;3.83;;;19.80;99.90;;;;;;5082582;28;20048;-80
2021/10/01 12:48:29;;;;;;;7.53;3.72;;;19.90;99.90;;;;;;5080411;28;20162;-82
2021/10/01 12:51:01;;;;;;;7.35;2.80;;;20.10;99.90;;;;;;5081694;28;20075;-80
2021/10/01 12:53:32;;;;;;;5.28;2.55;;;20.10;99.90;;;;;;5081433;28;20076;-81
2021/10/01 12:56:18;;;;;;;7.00;2.60;;;20.10;99.90;;;;;;5078764;28;20067;-79
2021/10/01 12:58:48;;;;;;;4.97;2.33;;;20.00;99.90;;;;;;5077306;28;20042;-79
2021/10/01 13:01:18;;;;;;;7.22;2.55;;;20.00;99.90;;;;;;5077015;28;20098;-77
2021/10/01 13:03:56;;;;;;;4.13;2.40;;;20.00;99.90;;;;;;5082328;28;20075;-81
2021/10/01 13:06:31;;;;;;;7.85;2.55;;;20.10;99.90;;;;;;5083911;28;20048;-80
2021/10/01 13:09:42;;;;;;;5.18;2.50;;;20.20;99.90;;;;;;5083022;28;20048;-79
2021/10/01 13:12:13;;;;;;;5.72;2.72;;;20.20;99.90;;;;;;5082070;28;20056;-81
2021/10/01 13:14:40;;;;;;;4.45;2.63;;;20.20;99.90;;;;;;5080272;28;20064;-80
2021/10/01 13:17:23;;;;;;;3.55;2.15;;;20.20;99.90;;;;;;5080373;28;20059;-82
2021/10/01 13:20:00;;;;;;;;;;;20.20;99.90;;;;;;5080750;28;20052;-78
2021/10/01 13:23:02;;;;;;;5.82;2.53;;;20.00;99.90;;;;;;5078980;28;19924;-78
2021/10/01 13:26:10;;;;;;;4.32;2.42;;;20.00;99.90;;;;;;5081170;28;20116;-80
2021/10/01 13:28:43;;;;;;;8.35;2.78;;;19.90;99.90;;;;;;5079158;28;20044;-79
2021/10/01 13:33:58;;;;;;;5.72;2.17;;;19.90;99.90;;;;;;5069743;28;20086;-78
2021/10/01 13:36:31;;;;;;;3.00;1.77;;;19.90;99.90;;;;;;5077301;28;20443;-80
2021/10/01 13:39:05;;;;;;;7.35;2.72;;;19.90;99.90;;;;;;5078199;28;20078;-80
2021/10/01 13:41:33;;;;;;;6.88;2.22;;;19.90;99.90;;;;;;5077710;28;20090;-80
2021/10/01 13:44:02;;;;;;;5.55;2.38;;;19.80;99.90;;;;;;5076002;28;20079;-79
2021/10/01 13:46:49;;;;;;;6.38;2.25;;;19.80;99.90;;;;;;5074691;28;20052;-78
2021/10/01 13:52:30;;;;;;;4.65;2.25;;;19.80;99.90;;;;;;5074132;28;20087;-78
2021/10/01 13:55:26;;;;;;;3.90;2.42;;;19.90;99.90;;;;;;5082176;28;20064;-78
2021/10/01 13:58:13;;;;;;;8.77;2.67;;;19.90;99.90;;;;;;5078469;28;20045;-79
2021/10/01 14:00:49;;;;;;;7.60;2.67;;;19.90;99.90;;;;;;5078107;28;20060;-80
2021/10/01 14:46:32;;;;;;;4.38;2.58;;;19.50;99.90;;;;;;5036610;28;20520;-77
2021/10/01 14:53:24;;;;;;;5.50;2.67;;;19.50;99.90;;;;;;5026280;28;20057;-78
2021/10/01 14:56:39;;;;;;;6.10;2.88;;;19.50;99.90;;;;;;5025342;28;20124;-76
2021/10/01 15:00:15;;;;;;;6.72;2.90;;;19.50;99.90;;;;;;5040336;28;20083;-80
2021/10/01 15:12:27;;;;;;;6.47;2.90;;;19.40;99.90;;;;;;4998940;28;20045;-79
2021/10/01 15:28:42;;;;;;;7.70;3.10;;;18.70;99.90;;;;;;4819422;29;20047;-79
2021/10/01 15:38:13;;;;;;;4.55;2.40;;;18.60;99.90;;;;;;4883714;29;20076;-78
2021/10/01 15:46:59;;;;;;;8.20;3.00;;;18.50;99.90;;;;;;4963535;28;20047;-78
2021/10/01 15:52:39;;;;;;;8.90;3.43;;;18.40;99.90;;;;;;4978517;23;20045;-78
2021/10/01 15:55:09;;;;;;;6.68;3.08;;;18.40;99.90;;;;;;5037555;28;20581;-79
2021/10/01 15:57:36;;;;;;;6.88;3.10;;;18.30;99.90;;;;;;5036797;28;20103;-79
2021/10/01 16:00:06;;;;;;;8.60;3.00;;;18.40;99.90;;;;;;5036248;28;20058;-78
2021/10/01 16:02:34;;;;;;;4.63;2.50;;;18.30;99.90;;;;;;5036139;28;20140;-78
2021/10/01 16:05:01;;;;;;;4.07;3.03;;;18.20;99.90;;;;;;5036956;28;20133;-78
2021/10/01 16:07:28;;;;;;;8.88;2.90;;;18.10;99.90;;;;;;5037097;28;20472;-78
2021/10/01 16:09:55;;;;;;;5.95;3.15;;;18.10;99.90;;;;;;5036594;28;20092;-78
2021/10/01 16:12:22;;;;;;;9.13;3.05;;;18.10;99.90;;;;;;5036526;28;20050;-78
2021/10/01 16:14:48;;;;;;;5.30;2.97;;;18.00;99.90;;;;;;5036035;28;20045;-78
2021/10/01 16:17:18;;;;;;;8.43;3.13;;;18.00;99.90;;;;;;5037781;28;20136;-77
2021/10/01 16:19:46;;;;;;;6.53;3.30;;;17.90;99.90;;;;;;5037196;28;20424;-79
2021/10/01 16:22:13;;;;;;;8.70;3.30;;;17.90;99.90;;;;;;5039091;28;20050;-79
2021/10/01 16:24:41;;;;;;;7.38;3.00;;;17.80;99.90;;;;;;5038003;28;20080;-78
2021/10/01 16:27:08;;;;;;;10.13;3.20;;;17.80;99.90;;;;;;5037477;28;20132;-79
2021/10/01 16:29:35;;;;;;;8.13;3.75;;;17.80;99.90;;;;;;5037579;28;20077;-79
2021/10/01 16:32:02;;;;;;;5.38;2.95;;;17.80;99.90;;;;;;5038414;28;20179;-79
2021/10/01 16:34:30;;;;;;;9.75;3.67;;;17.80;99.90;;;;;;5037760;28;20573;-78
2021/10/01 16:36:57;;;;;;;12.02;3.63;;;17.80;99.90;;;;;;5038084;28;20085;-79
2021/10/01 16:39:24;;;;;;;7.72;3.53;;;17.70;99.90;;;;;;5036895;28;20105;-79
2021/10/01 16:41:51;;;;;;;8.52;3.45;;;17.80;99.90;;;;;;5036991;28;20060;-78
2021/10/01 16:44:20;;;;;;;9.75;3.40;;;17.80;99.90;;;;;;5038031;28;20128;-79
2021/10/01 16:46:48;;;;;;;9.77;3.10;;;17.70;99.90;;;;;;5037311;28;20402;-78
2021/10/01 16:49:15;;;;;;;7.47;2.88;;;17.70;99.90;;;;;;5036505;28;20133;-79
2021/10/01 16:51:44;;;;;;;7.40;3.75;;;17.70;99.90;;;;;;5036547;28;20061;-78